KMDD/MDD METAR and TAF weather

Enter ICAO airport designator
Station Type Date Time Source
KMDD METAR 2020/12/06 01:15 UTC NOAA

KMDD 060115Z AUTO 18006KT 10SM -RA BKN036 OVC043 06/01 A3027 RMK AO2 T00630015


Station Type Date Time Source
KMDD Decoded METAR 2020/12/06 01:15 UTC NOAA

Midland, Midland Airpark, TX, United States (KMDD) 32-02-11N 102-06-03W
Dec 05, 2020 - 08:15 PM EST / 2020.12.06 0115 UTC
Wind: from the S (180 degrees) at 7 MPH (6 KT):0
Visibility: 10 mile(s):0
Sky conditions: overcast
Weather: light rain
Temperature: 43.3 F (6.3 C)
Dew Point: 34.7 F (1.5 C)
Relative Humidity: 71%
Pressure (altimeter): 30.27 in. Hg (1025 hPa)
ob: KMDD 060115Z AUTO 18006KT 10SM -RA BKN036 OVC043 06/01 A3027 RMK AO2 T00630015
cycle: 1

Station Type Date Time Source
KMDD TAF UTC NOAA

Error!

Example: see airport list